Terminal Aerodrome Forecast
Issued by NWS Lake Charles, LA

Home | Current Version | Previous Version | Text Only | Print | Product List | Glossary On
Versions: 1 2 3 4 5 6 7 8 9 10 11 12 13 14 15 16
000
FTUS44 KLCH 291200 AAA
TAFBPT
TAF AMD
KBPT 291258Z 2913/3012 VRB05KT P6SM SCT027 OVC035
     FM291500 36007KT P6SM SCT035 OVC250
     FM291800 02006KT P6SM VCTS SCT040CB=

USA.gov is the U.S. government's official web portal to all federal, state and local government web resources and services.